createdAt,value
2023-03-12T00:01:44.394Z,75.20
2023-03-12T00:03:15.006Z,75.07
2023-03-12T00:04:37.593Z,75.27
2023-03-12T00:06:02.005Z,75.45
2023-03-12T00:07:29.409Z,75.62
2023-03-12T00:09:11.091Z,75.57
2023-03-12T00:10:42.797Z,75.82
2023-03-12T00:12:15.081Z,75.43
2023-03-12T00:13:42.539Z,75.24
2023-03-12T00:15:14.579Z,75.10
2023-03-12T00:16:34.923Z,75.31
2023-03-12T00:17:57.855Z,75.35
2023-03-12T00:19:29.881Z,75.46
2023-03-12T00:20:57.562Z,75.62
2023-03-12T00:22:34.646Z,75.69
2023-03-12T00:24:07.048Z,75.55
2023-03-12T00:25:27.254Z,75.53
2023-03-12T00:26:47.413Z,75.68
2023-03-12T00:28:08.276Z,75.54
2023-03-12T00:29:39.880Z,75.58
2023-03-12T00:31:19.487Z,75.58
2023-03-12T00:32:53.477Z,75.11
2023-03-12T00:34:17.198Z,75.53
2023-03-12T00:35:59.774Z,75.66
2023-03-12T00:37:34.401Z,75.75
2023-03-12T00:38:56.962Z,75.57
2023-03-12T00:40:29.244Z,75.86
2023-03-12T00:42:01.566Z,75.69
2023-03-12T00:43:21.744Z,75.83
2023-03-12T00:44:54.351Z,75.30
2023-03-12T00:46:26.511Z,75.86
2023-03-12T00:48:03.682Z,75.70
2023-03-12T00:49:26.116Z,75.79
2023-03-12T00:50:58.066Z,75.78
2023-03-12T00:52:18.402Z,75.97
2023-03-12T00:53:54.624Z,76.14
2023-03-12T00:55:17.709Z,76.34
2023-03-12T00:56:51.582Z,76.13
2023-03-12T00:58:19.855Z,75.90
2023-03-12T00:59:51.807Z,75.98
2023-03-12T01:01:12.614Z,75.89
2023-03-12T01:02:32.880Z,76.03
2023-03-12T01:04:01.263Z,75.89
2023-03-12T01:05:37.002Z,75.91
2023-03-12T01:06:59.943Z,76.10
2023-03-12T01:08:43.381Z,75.74
2023-03-12T01:10:32.936Z,76.10
2023-03-12T01:12:03.339Z,76.05
2023-03-12T01:13:23.366Z,76.05
2023-03-12T01:14:45.857Z,75.90
2023-03-12T01:16:29.490Z,75.93
2023-03-12T01:17:52.221Z,75.63
2023-03-12T01:19:26.590Z,75.63
2023-03-12T01:21:05.539Z,76.09
2023-03-12T01:22:37.557Z,76.12
2023-03-12T01:24:08.008Z,76.28
2023-03-12T01:25:42.157Z,76.28
2023-03-12T01:27:26.644Z,76.30
2023-03-12T01:28:54.357Z,76.49
2023-03-12T01:30:37.808Z,76.47
2023-03-12T01:32:17.559Z,76.20
2023-03-12T01:33:49.683Z,76.19
2023-03-12T01:35:32.927Z,76.15
2023-03-12T01:37:04.946Z,76.36
2023-03-12T01:38:48.513Z,76.38
2023-03-12T01:40:28.182Z,76.48
2023-03-12T01:42:01.337Z,76.28
2023-03-12T01:43:45.162Z,76.36
2023-03-12T01:45:28.869Z,76.49
2023-03-12T01:46:49.443Z,76.57
2023-03-12T01:48:39.121Z,76.67
2023-03-12T01:50:11.255Z,76.45
2023-03-12T01:51:56.828Z,76.41
2023-03-12T01:53:32.196Z,76.74
2023-03-12T01:55:04.566Z,76.79
2023-03-12T01:56:39.535Z,76.88
2023-03-12T01:58:03.383Z,76.91
2023-03-12T01:59:37.173Z,76.99
2023-03-12T02:01:08.055Z,76.68
2023-03-12T02:02:38.086Z,77.17
2023-03-12T02:04:18.365Z,76.93
2023-03-12T02:06:01.835Z,76.80
2023-03-12T02:07:34.788Z,76.88
2023-03-12T02:09:18.851Z,77.04
2023-03-12T02:10:42.060Z,76.88
2023-03-12T02:12:14.563Z,77.00
2023-03-12T02:13:38.820Z,77.16
2023-03-12T02:15:13.292Z,77.13
2023-03-12T02:16:48.780Z,77.31
2023-03-12T02:18:23.415Z,77.51
2023-03-12T02:19:55.177Z,77.35
2023-03-12T02:21:38.597Z,77.37
2023-03-12T02:23:11.030Z,77.34
2023-03-12T02:24:52.276Z,77.06
2023-03-12T02:26:31.712Z,77.54
2023-03-12T02:28:15.958Z,77.45
2023-03-12T02:29:49.944Z,77.58
2023-03-12T02:31:24.747Z,77.58
2023-03-12T02:33:04.299Z,77.24
2023-03-12T02:34:38.814Z,77.53
2023-03-12T02:36:13.828Z,77.50
2023-03-12T02:37:48.834Z,77.40
2023-03-12T02:39:24.091Z,77.38
2023-03-12T02:41:07.095Z,77.47
2023-03-12T02:42:54.261Z,77.17
2023-03-12T02:44:38.198Z,77.63
2023-03-12T02:46:12.825Z,77.52
2023-03-12T02:47:44.484Z,77.46
2023-03-12T02:49:28.419Z,77.33
2023-03-12T02:51:08.150Z,77.44
2023-03-12T02:52:35.576Z,77.65
2023-03-12T02:54:08.282Z,77.87
2023-03-12T02:55:40.050Z,77.71
2023-03-12T02:57:14.881Z,77.54
2023-03-12T02:58:46.645Z,77.40
2023-03-12T03:00:13.434Z,77.31
2023-03-12T03:01:47.889Z,77.36
2023-03-12T03:03:28.063Z,77.29
2023-03-12T03:05:21.067Z,77.38
2023-03-12T03:06:52.884Z,77.52
2023-03-12T03:08:24.883Z,77.66
2023-03-12T03:10:08.375Z,77.13
2023-03-12T03:11:51.685Z,76.91
2023-03-12T03:13:23.784Z,77.03
2023-03-12T03:15:01.440Z,77.17
2023-03-12T03:16:29.419Z,77.01
2023-03-12T03:18:03.212Z,77.17
2023-03-12T03:19:37.783Z,77.15
2023-03-12T03:21:21.901Z,77.32
2023-03-12T03:22:53.912Z,76.83
2023-03-12T03:24:37.314Z,76.95
2023-03-12T03:26:09.939Z,76.72
2023-03-12T03:28:02.233Z,76.41
2023-03-12T03:29:34.261Z,76.47
2023-03-12T03:31:15.407Z,76.54
2023-03-12T03:32:54.865Z,76.47
2023-03-12T03:34:38.477Z,76.63
2023-03-12T03:36:22.496Z,76.75
2023-03-12T03:38:03.207Z,76.46
2023-03-12T03:39:31.328Z,76.17
2023-03-12T03:41:03.437Z,75.89
2023-03-12T03:42:35.323Z,75.92
2023-03-12T03:44:09.926Z,76.22
2023-03-12T03:45:44.130Z,76.07
2023-03-12T03:47:16.575Z,76.17
2023-03-12T03:48:38.697Z,76.22
2023-03-12T03:50:31.494Z,76.20
2023-03-12T03:52:05.781Z,76.25
2023-03-12T03:53:33.723Z,76.00
2023-03-12T03:55:08.165Z,76.01
2023-03-12T03:56:49.076Z,76.14
2023-03-12T03:58:23.839Z,75.77
2023-03-12T04:00:07.608Z,75.90
2023-03-12T04:01:36.039Z,75.97
2023-03-12T04:03:15.531Z,76.05
2023-03-12T04:04:58.928Z,75.91
2023-03-12T04:06:31.114Z,75.71
2023-03-12T04:08:03.357Z,75.61
2023-03-12T04:09:35.982Z,75.79
2023-03-12T04:11:20.277Z,75.52
2023-03-12T04:12:54.425Z,75.58
2023-03-12T04:14:38.285Z,75.81
2023-03-12T04:16:17.779Z,75.97
2023-03-12T04:18:01.383Z,76.14
2023-03-12T04:19:44.915Z,76.20
2023-03-12T04:21:20.532Z,76.06
2023-03-12T04:23:04.167Z,75.99
2023-03-12T04:24:38.411Z,75.83
2023-03-12T04:26:18.033Z,75.75
2023-03-12T04:28:01.311Z,75.60
2023-03-12T04:29:44.611Z,75.52
2023-03-12T04:31:37.203Z,75.82
2023-03-12T04:33:09.610Z,75.93
2023-03-12T04:35:01.498Z,75.92
2023-03-12T04:36:36.159Z,76.12
2023-03-12T04:38:19.905Z,76.08
2023-03-12T04:40:12.135Z,75.75
2023-03-12T04:41:42.307Z,75.84
2023-03-12T04:43:22.478Z,75.67
2023-03-12T04:45:05.592Z,75.97
2023-03-12T04:46:58.119Z,75.99
2023-03-12T04:48:51.143Z,75.93
2023-03-12T04:50:34.665Z,75.75
2023-03-12T04:52:18.888Z,75.57
2023-03-12T04:53:51.025Z,75.38
2023-03-12T04:55:34.810Z,75.58
2023-03-12T04:57:19.119Z,75.45
2023-03-12T04:59:12.103Z,75.81
2023-03-12T05:00:46.158Z,75.94
2023-03-12T05:02:07.278Z,75.80
2023-03-12T05:04:00.216Z,76.08
2023-03-12T05:05:44.651Z,75.20
2023-03-12T05:07:19.177Z,75.29
2023-03-12T05:09:01.374Z,75.09
2023-03-12T05:10:53.565Z,75.25
2023-03-12T05:12:21.364Z,75.15
2023-03-12T05:13:48.861Z,75.49
2023-03-12T05:15:09.773Z,75.57
2023-03-12T05:16:51.094Z,75.43
2023-03-12T05:18:21.720Z,75.52
2023-03-12T05:20:13.264Z,75.59
2023-03-12T05:21:48.015Z,75.26
2023-03-12T05:23:32.062Z,75.11
2023-03-12T05:25:15.657Z,75.15
2023-03-12T05:26:52.266Z,74.95
2023-03-12T05:28:27.596Z,75.26
2023-03-12T05:30:19.985Z,75.39
2023-03-12T05:32:00.616Z,75.35
2023-03-12T05:33:51.580Z,75.31
2023-03-12T05:35:24.976Z,75.17
2023-03-12T05:37:09.444Z,75.07
2023-03-12T05:38:42.040Z,74.81
2023-03-12T05:40:26.352Z,74.88
2023-03-12T05:42:10.712Z,75.18
2023-03-12T05:43:43.766Z,75.35
2023-03-12T05:45:28.173Z,75.22
2023-03-12T05:47:12.799Z,75.37
2023-03-12T05:48:36.153Z,75.18
2023-03-12T05:50:16.038Z,75.41
2023-03-12T05:51:56.444Z,75.07
2023-03-12T05:53:28.759Z,74.83
2023-03-12T05:55:12.202Z,75.12
2023-03-12T05:57:00.650Z,75.30
2023-03-12T05:58:34.760Z,75.39
2023-03-12T06:00:14.511Z,75.39
2023-03-12T06:01:58.178Z,75.27
2023-03-12T06:03:21.302Z,75.24
2023-03-12T06:05:08.687Z,74.97
2023-03-12T06:06:52.144Z,74.97
2023-03-12T06:08:27.816Z,74.71
2023-03-12T06:10:00.060Z,74.86
2023-03-12T06:11:20.564Z,74.95
2023-03-12T06:13:04.585Z,75.11
2023-03-12T06:14:38.906Z,74.99
2023-03-12T06:16:14.482Z,74.99
2023-03-12T06:18:07.165Z,75.26
2023-03-12T06:19:46.968Z,74.94
2023-03-12T06:21:30.914Z,74.71
2023-03-12T06:23:10.732Z,74.76
2023-03-12T06:24:58.281Z,74.58
2023-03-12T06:26:30.671Z,74.60
2023-03-12T06:28:14.953Z,74.63
2023-03-12T06:29:56.142Z,74.55
2023-03-12T06:31:39.622Z,73.96
2023-03-12T06:33:24.128Z,73.89
2023-03-12T06:35:08.827Z,73.81
2023-03-12T06:36:41.096Z,73.29
2023-03-12T06:38:25.257Z,73.12
2023-03-12T06:39:57.512Z,73.10
2023-03-12T06:41:43.917Z,73.09
2023-03-12T06:43:12.340Z,72.85
2023-03-12T06:45:05.131Z,72.69
2023-03-12T06:46:56.558Z,72.83
2023-03-12T06:48:40.429Z,72.46
2023-03-12T06:50:13.051Z,72.12
2023-03-12T06:51:57.137Z,71.78
2023-03-12T06:53:31.583Z,71.51
2023-03-12T06:55:15.061Z,71.29
2023-03-12T06:56:42.437Z,71.52
2023-03-12T06:58:22.353Z,71.82
2023-03-12T07:00:05.717Z,71.95
2023-03-12T07:01:49.369Z,71.93
2023-03-12T07:03:22.196Z,71.45
2023-03-12T07:05:04.901Z,71.30
2023-03-12T07:06:48.476Z,71.50
2023-03-12T07:08:23.219Z,71.28
2023-03-12T07:10:07.163Z,71.53
2023-03-12T07:11:51.303Z,71.54
2023-03-12T07:13:14.783Z,71.61
2023-03-12T07:14:46.688Z,71.74
2023-03-12T07:16:30.623Z,71.77
2023-03-12T07:18:05.132Z,71.73
2023-03-12T07:19:37.381Z,72.09
2023-03-12T07:21:09.857Z,71.80
2023-03-12T07:22:43.325Z,71.60
2023-03-12T07:24:28.026Z,71.25
2023-03-12T07:26:12.290Z,71.03
2023-03-12T07:27:56.692Z,71.11
2023-03-12T07:29:27.010Z,71.04
2023-03-12T07:30:55.064Z,71.23
2023-03-12T07:32:27.799Z,71.15
2023-03-12T07:34:02.366Z,71.00
2023-03-12T07:35:23.531Z,70.74
2023-03-12T07:37:12.901Z,70.54
2023-03-12T07:38:45.833Z,70.04
2023-03-12T07:40:29.841Z,69.86
2023-03-12T07:42:09.485Z,69.14
2023-03-12T07:43:49.673Z,69.13
2023-03-12T07:45:29.795Z,69.18
2023-03-12T07:46:52.777Z,69.35
2023-03-12T07:48:33.314Z,69.05
2023-03-12T07:50:05.644Z,69.14
2023-03-12T07:51:33.194Z,69.07
2023-03-12T07:53:12.949Z,69.03
2023-03-12T07:54:56.720Z,68.40
2023-03-12T07:56:30.628Z,68.17
2023-03-12T07:58:14.904Z,67.75
2023-03-12T07:59:47.209Z,67.39
2023-03-12T08:01:31.214Z,67.49
2023-03-12T08:02:59.242Z,67.40
2023-03-12T08:04:24.929Z,66.83
2023-03-12T08:06:04.150Z,66.43
2023-03-12T08:07:36.863Z,65.90
2023-03-12T08:09:09.691Z,64.87
2023-03-12T08:10:54.698Z,63.61
2023-03-12T08:12:20.118Z,63.41
2023-03-12T08:14:04.130Z,63.60
2023-03-12T08:15:56.003Z,63.25
2023-03-12T08:17:28.705Z,63.38
2023-03-12T08:19:01.402Z,63.33
2023-03-12T08:20:45.299Z,62.84
2023-03-12T08:22:29.133Z,63.32
2023-03-12T08:24:01.315Z,63.64
2023-03-12T08:25:36.096Z,64.20
2023-03-12T08:27:17.663Z,64.63
2023-03-12T08:28:51.530Z,64.16
2023-03-12T08:30:30.028Z,63.53
2023-03-12T08:32:05.732Z,63.61
2023-03-12T08:33:40.380Z,63.28
2023-03-12T08:35:16.293Z,63.31
2023-03-12T08:36:59.911Z,62.16
2023-03-12T08:38:31.940Z,62.30
2023-03-12T08:40:24.720Z,61.46
2023-03-12T08:42:08.462Z,60.77
2023-03-12T08:43:43.194Z,59.81
2023-03-12T08:45:23.409Z,59.89
2023-03-12T08:47:02.962Z,59.93
2023-03-12T08:48:53.088Z,59.97
2023-03-12T08:50:33.138Z,59.69
2023-03-12T08:52:07.700Z,59.87
2023-03-12T08:53:42.083Z,59.49
2023-03-12T08:55:26.255Z,59.12
2023-03-12T08:57:10.299Z,58.16
2023-03-12T08:58:54.574Z,58.23
2023-03-12T09:00:38.966Z,58.22
2023-03-12T09:02:11.238Z,57.22
2023-03-12T09:03:53.710Z,56.81
2023-03-12T09:05:33.677Z,56.44
2023-03-12T09:07:17.662Z,57.14
2023-03-12T09:09:00.373Z,57.30
2023-03-12T09:10:35.461Z,56.65
2023-03-12T09:12:07.515Z,55.91
2023-03-12T09:15:46.478Z,55.94
2023-03-12T09:17:30.598Z,55.60
2023-03-12T09:19:02.649Z,54.58
2023-03-12T09:20:37.763Z,54.85
2023-03-12T09:22:21.860Z,54.81
2023-03-12T09:23:54.082Z,55.07
2023-03-12T09:25:26.615Z,54.40
2023-03-12T09:26:52.064Z,54.55
2023-03-12T09:28:35.587Z,55.22
2023-03-12T09:30:08.111Z,54.71
2023-03-12T09:31:40.286Z,55.45
2023-03-12T09:33:24.146Z,54.84
2023-03-12T09:34:58.607Z,55.56
2023-03-12T09:36:38.341Z,55.01
2023-03-12T09:38:20.044Z,55.17
2023-03-12T09:40:04.214Z,54.46
2023-03-12T09:41:47.878Z,53.86
2023-03-12T09:43:31.637Z,53.99
2023-03-12T09:45:05.927Z,53.60
2023-03-12T09:46:49.603Z,53.54
2023-03-12T09:48:33.453Z,53.86
2023-03-12T09:50:08.102Z,52.86
2023-03-12T09:51:51.728Z,52.62
2023-03-12T09:53:26.466Z,52.29
2023-03-12T09:55:05.878Z,51.55
2023-03-12T09:56:45.223Z,51.59
2023-03-12T09:58:13.573Z,51.84
2023-03-12T09:59:56.935Z,51.81
2023-03-12T10:01:40.543Z,50.75
2023-03-12T10:03:10.629Z,50.47
2023-03-12T10:04:58.172Z,50.69
2023-03-12T10:06:33.529Z,50.63
2023-03-12T10:08:23.505Z,50.91
2023-03-12T10:09:57.134Z,51.53
2023-03-12T10:11:36.613Z,51.39
2023-03-12T10:12:59.725Z,51.84
2023-03-12T10:14:34.002Z,52.11
2023-03-12T10:16:05.791Z,51.77
2023-03-12T10:17:36.057Z,52.11
2023-03-12T10:19:16.747Z,52.69
2023-03-12T10:20:50.314Z,52.33
2023-03-12T10:22:13.495Z,52.40
2023-03-12T10:24:05.225Z,52.46
2023-03-12T10:25:52.911Z,52.22
2023-03-12T10:27:36.559Z,51.77
2023-03-12T10:29:20.266Z,51.90
2023-03-12T10:31:00.559Z,51.60
2023-03-12T10:32:30.546Z,51.45
2023-03-12T10:33:51.541Z,51.21
2023-03-12T10:35:23.679Z,50.90
2023-03-12T10:36:58.445Z,51.07
2023-03-12T10:38:42.685Z,50.50
2023-03-12T10:40:26.628Z,50.19
2023-03-12T10:41:54.567Z,50.30
2023-03-12T10:43:36.002Z,50.31
2023-03-12T10:45:10.730Z,50.54
2023-03-12T10:47:02.361Z,51.24
2023-03-12T10:48:26.120Z,50.91
2023-03-12T10:50:10.006Z,50.26
2023-03-12T10:51:42.011Z,50.89
2023-03-12T10:53:04.649Z,50.54
2023-03-12T10:54:36.290Z,50.40
2023-03-12T10:56:08.581Z,50.42
2023-03-12T10:57:31.701Z,50.32
2023-03-12T10:59:15.550Z,50.66
2023-03-12T11:01:09.111Z,50.13
2023-03-12T11:02:53.013Z,50.12
2023-03-12T11:04:14.329Z,50.46
2023-03-12T11:05:48.446Z,50.48
2023-03-12T11:07:32.141Z,50.19
2023-03-12T11:09:17.463Z,50.40
2023-03-12T11:11:01.214Z,50.71
2023-03-12T11:12:35.885Z,51.31
2023-03-12T11:14:19.943Z,51.05
2023-03-12T11:15:52.078Z,50.70
2023-03-12T11:17:24.697Z,50.75
2023-03-12T11:19:16.347Z,49.26
2023-03-12T11:23:11.637Z,48.86
2023-03-12T11:24:34.446Z,48.95
2023-03-12T11:26:17.803Z,47.89
2023-03-12T11:28:01.119Z,48.13
2023-03-12T11:29:44.986Z,47.92
2023-03-12T11:31:19.685Z,46.90
2023-03-12T11:32:39.647Z,46.38
2023-03-12T11:34:23.766Z,46.56
2023-03-12T11:35:46.245Z,46.54
2023-03-12T11:37:26.203Z,46.86
2023-03-12T11:39:09.618Z,47.24
2023-03-12T11:40:32.115Z,47.21
2023-03-12T11:42:15.772Z,47.23
2023-03-12T11:43:45.588Z,47.06
2023-03-12T11:45:20.257Z,47.09
2023-03-12T11:46:50.239Z,47.23
2023-03-12T11:48:22.593Z,47.97
2023-03-12T11:50:12.013Z,47.88
2023-03-12T11:51:46.754Z,48.15
2023-03-12T11:53:07.139Z,48.32
2023-03-12T11:54:29.829Z,48.73
2023-03-12T11:55:54.687Z,48.29
2023-03-12T11:57:26.844Z,47.62
2023-03-12T11:58:46.835Z,47.10
2023-03-12T12:00:30.431Z,46.59
2023-03-12T12:02:13.968Z,45.84
2023-03-12T12:03:52.745Z,45.77
2023-03-12T12:05:36.348Z,45.59
2023-03-12T12:07:20.630Z,44.75
2023-03-12T12:08:52.017Z,45.12
2023-03-12T12:10:24.368Z,44.29
2023-03-12T12:11:47.528Z,44.19
2023-03-12T12:13:31.486Z,44.27
2023-03-12T12:15:06.124Z,43.78
2023-03-12T12:16:57.937Z,43.45
2023-03-12T12:18:37.494Z,45.05
2023-03-12T12:19:57.821Z,45.10
2023-03-12T12:21:22.647Z,45.34
2023-03-12T12:22:45.085Z,46.26
2023-03-12T12:24:10.239Z,46.31
2023-03-12T12:25:54.687Z,46.99
2023-03-12T12:27:17.670Z,47.10
2023-03-12T12:29:01.992Z,46.43
2023-03-12T12:30:36.043Z,46.93
2023-03-12T12:31:56.590Z,47.25
2023-03-12T12:33:28.875Z,47.28
2023-03-12T12:35:14.276Z,46.47
2023-03-12T12:37:02.508Z,46.19
2023-03-12T12:38:34.097Z,46.40
2023-03-12T12:40:08.313Z,46.80
2023-03-12T12:41:51.695Z,46.63
2023-03-12T12:43:31.477Z,46.49
2023-03-12T12:45:10.929Z,46.65
2023-03-12T12:46:43.052Z,46.70
2023-03-12T12:48:22.548Z,44.98
2023-03-12T12:50:14.895Z,44.43
2023-03-12T12:51:56.041Z,43.09
2023-03-12T12:53:28.563Z,43.41
2023-03-12T12:54:58.434Z,44.15
2023-03-12T12:56:52.003Z,44.10
2023-03-12T12:58:35.814Z,44.14
2023-03-12T13:00:19.884Z,44.48
2023-03-12T13:01:51.728Z,43.56
2023-03-12T13:03:22.164Z,43.94
2023-03-12T13:04:53.740Z,43.37
2023-03-12T13:06:28.359Z,43.80
2023-03-12T13:08:07.884Z,43.10
2023-03-12T13:09:31.119Z,43.01
2023-03-12T13:11:19.458Z,43.04
2023-03-12T13:12:52.193Z,41.58
2023-03-12T13:14:24.210Z,41.19
2023-03-12T13:15:59.166Z,40.54
2023-03-12T13:17:23.030Z,40.36
2023-03-12T13:18:45.509Z,40.85
2023-03-12T13:20:20.014Z,40.86
2023-03-12T13:22:03.379Z,40.88
2023-03-12T13:23:35.557Z,40.36
2023-03-12T13:25:07.430Z,40.80
2023-03-12T13:26:30.818Z,41.01
2023-03-12T13:28:15.014Z,41.23
2023-03-12T13:30:01.701Z,40.60
2023-03-12T13:31:24.451Z,40.19
2023-03-12T13:32:58.880Z,39.34
2023-03-12T13:34:43.176Z,39.69
2023-03-12T13:36:22.758Z,39.57
2023-03-12T13:37:43.701Z,39.72
2023-03-12T13:39:17.944Z,39.32
2023-03-12T13:41:01.277Z,38.94
2023-03-12T13:42:33.047Z,37.98
2023-03-12T13:43:55.619Z,37.93
2023-03-12T13:45:16.615Z,37.61
2023-03-12T13:46:48.464Z,38.25
2023-03-12T13:48:20.975Z,39.01
2023-03-12T13:49:55.401Z,39.22
2023-03-12T13:51:20.832Z,39.80
2023-03-12T13:52:41.166Z,39.84
2023-03-12T13:54:15.493Z,39.62
2023-03-12T13:55:50.579Z,39.11
2023-03-12T13:57:39.133Z,38.93
2023-03-12T13:59:18.656Z,38.46
2023-03-12T14:00:43.911Z,37.93
2023-03-12T14:02:11.981Z,38.01
2023-03-12T14:03:55.438Z,38.68
2023-03-12T14:05:39.018Z,38.40
2023-03-12T14:07:22.458Z,38.56
2023-03-12T14:08:56.107Z,39.18
2023-03-12T14:10:39.796Z,39.58
2023-03-12T14:12:23.388Z,40.95
2023-03-12T14:13:55.144Z,41.46
2023-03-12T14:15:38.884Z,42.50
2023-03-12T14:17:23.476Z,42.78
2023-03-12T14:19:06.976Z,43.22
2023-03-12T14:20:41.166Z,43.23
2023-03-12T14:22:13.159Z,42.61
2023-03-12T14:23:43.141Z,41.74
2023-03-12T14:25:13.480Z,42.14
2023-03-12T14:26:56.838Z,42.05
2023-03-12T14:28:31.370Z,42.78
2023-03-12T14:30:03.654Z,43.09
2023-03-12T14:31:56.122Z,43.39
2023-03-12T14:33:39.579Z,43.14
2023-03-12T14:35:13.013Z,43.45
2023-03-12T14:36:52.151Z,43.88
2023-03-12T14:38:45.012Z,44.28
2023-03-12T14:40:28.936Z,44.38
2023-03-12T14:42:08.325Z,44.47
2023-03-12T14:43:51.629Z,44.18
2023-03-12T14:45:31.204Z,44.62
2023-03-12T14:47:14.658Z,45.15
2023-03-12T14:49:05.775Z,45.31
2023-03-12T14:50:49.319Z,45.92
2023-03-12T14:52:14.015Z,45.87
2023-03-12T14:53:58.640Z,46.33
2023-03-12T14:55:42.590Z,46.42
2023-03-12T14:57:34.816Z,46.81
2023-03-12T14:59:18.309Z,46.77
2023-03-12T15:01:11.025Z,47.47
2023-03-12T15:02:33.934Z,47.48
2023-03-12T15:04:17.563Z,47.39
2023-03-12T15:06:08.148Z,47.79
2023-03-12T15:07:52.671Z,47.35
2023-03-12T15:09:27.801Z,47.47
2023-03-12T15:11:11.451Z,47.58
2023-03-12T15:12:36.972Z,47.82
2023-03-12T15:14:00.791Z,48.49
2023-03-12T15:15:54.031Z,48.23
2023-03-12T15:17:15.273Z,48.49
2023-03-12T15:18:58.474Z,48.73
2023-03-12T15:20:31.133Z,49.24
2023-03-12T15:22:15.037Z,49.18
2023-03-12T15:26:06.530Z,49.71
2023-03-12T15:27:41.975Z,49.86
2023-03-12T15:29:25.619Z,50.39
2023-03-12T15:31:05.026Z,50.55
2023-03-12T15:32:57.108Z,50.81
2023-03-12T15:34:32.273Z,51.20
2023-03-12T15:36:16.633Z,51.25
2023-03-12T15:38:09.014Z,51.29
2023-03-12T15:40:02.016Z,51.38
2023-03-12T15:41:33.907Z,51.64
2023-03-12T15:43:19.221Z,51.62
2023-03-12T15:45:02.771Z,51.45
2023-03-12T15:46:54.929Z,51.53
2023-03-12T15:48:39.474Z,51.72
2023-03-12T15:50:23.016Z,52.17
2023-03-12T15:51:53.466Z,51.76
2023-03-12T15:53:27.779Z,51.88
2023-03-12T15:55:14.274Z,52.05
2023-03-12T15:57:02.231Z,52.48
2023-03-12T15:58:33.935Z,52.59
2023-03-12T16:00:08.708Z,52.50
2023-03-12T16:01:31.268Z,52.37
2023-03-12T16:02:54.711Z,52.23
2023-03-12T16:04:27.198Z,52.48
2023-03-12T16:06:11.006Z,52.48
2023-03-12T16:07:45.440Z,52.71
2023-03-12T16:09:20.175Z,52.64
2023-03-12T16:10:59.971Z,53.00
2023-03-12T16:12:27.756Z,53.12
2023-03-12T16:13:50.574Z,53.20
2023-03-12T16:15:18.814Z,53.01
2023-03-12T16:16:39.515Z,53.37
2023-03-12T16:18:02.566Z,53.83
2023-03-12T16:19:34.437Z,53.91
2023-03-12T16:21:06.589Z,53.77
2023-03-12T16:22:47.492Z,54.24
2023-03-12T16:24:22.621Z,54.28
2023-03-12T16:25:57.531Z,54.65
2023-03-12T16:27:41.655Z,54.65
2023-03-12T16:29:21.322Z,54.87
2023-03-12T16:30:48.647Z,54.88
2023-03-12T16:32:42.084Z,55.10
2023-03-12T16:34:14.392Z,55.33
2023-03-12T16:36:08.056Z,55.33
2023-03-12T16:37:51.770Z,55.30
2023-03-12T16:39:45.046Z,55.59
2023-03-12T16:41:24.626Z,55.77
2023-03-12T16:43:07.942Z,55.80
2023-03-12T16:44:39.979Z,55.89
2023-03-12T16:46:19.806Z,56.30
2023-03-12T16:48:03.603Z,56.02
2023-03-12T16:49:36.047Z,56.15
2023-03-12T16:51:07.837Z,56.40
2023-03-12T16:52:59.842Z,56.68
2023-03-12T16:54:43.625Z,56.68
2023-03-12T16:56:16.303Z,56.69
2023-03-12T16:57:48.558Z,57.04
2023-03-12T16:59:09.820Z,57.17
2023-03-12T17:00:45.107Z,57.25
2023-03-12T17:02:08.832Z,57.52
2023-03-12T17:03:53.392Z,57.36
2023-03-12T17:05:14.021Z,57.48
2023-03-12T17:07:01.926Z,57.66
2023-03-12T17:08:22.506Z,57.77
2023-03-12T17:10:03.020Z,57.63
2023-03-12T17:11:48.337Z,57.99
2023-03-12T17:13:18.905Z,58.29
2023-03-12T17:15:00.031Z,58.15
2023-03-12T17:16:32.786Z,58.47
2023-03-12T17:18:16.986Z,58.30
2023-03-12T17:20:10.051Z,58.36
2023-03-12T17:21:53.942Z,58.50
2023-03-12T17:23:38.024Z,58.56
2023-03-12T17:25:21.982Z,58.51
2023-03-12T17:27:01.261Z,58.60
2023-03-12T17:28:45.262Z,58.74
2023-03-12T17:30:20.251Z,58.63
2023-03-12T17:32:01.897Z,58.75
2023-03-12T17:33:23.179Z,58.79
2023-03-12T17:35:07.198Z,59.16
2023-03-12T17:36:39.302Z,58.98
2023-03-12T17:38:00.004Z,58.99
2023-03-12T17:39:32.174Z,59.14
2023-03-12T17:41:00.113Z,59.14
2023-03-12T17:42:34.693Z,58.81
2023-03-12T17:44:14.098Z,59.26
2023-03-12T17:46:06.271Z,59.30
2023-03-12T17:47:52.019Z,59.37
2023-03-12T17:49:35.307Z,59.78
2023-03-12T17:51:07.268Z,59.63
2023-03-12T17:52:37.510Z,59.59
2023-03-12T17:54:11.525Z,59.41
2023-03-12T17:56:05.013Z,59.82
2023-03-12T17:57:36.858Z,59.50
2023-03-12T17:59:10.855Z,59.58
2023-03-12T18:00:42.960Z,59.66
2023-03-12T18:02:15.521Z,59.65
2023-03-12T18:03:59.017Z,59.52
2023-03-12T18:05:52.036Z,59.45
2023-03-12T18:07:24.166Z,59.48
2023-03-12T18:09:03.639Z,59.54
2023-03-12T18:10:48.043Z,59.57
2023-03-12T18:12:20.572Z,59.59
2023-03-12T18:13:51.983Z,59.67
2023-03-12T18:15:24.154Z,59.72
2023-03-12T18:17:03.418Z,59.80
2023-03-12T18:18:46.990Z,60.02
2023-03-12T18:20:28.983Z,60.04
2023-03-12T18:22:11.473Z,60.20
2023-03-12T18:23:43.026Z,60.26
2023-03-12T18:25:22.751Z,60.20
2023-03-12T18:27:02.613Z,60.23
2023-03-12T18:28:36.687Z,60.42
2023-03-12T18:30:22.471Z,60.35
2023-03-12T18:31:54.101Z,60.11
2023-03-12T18:33:22.392Z,60.20
2023-03-12T18:34:47.498Z,60.49
2023-03-12T18:36:27.760Z,60.39
2023-03-12T18:38:02.169Z,60.36
2023-03-12T18:39:22.764Z,60.53
2023-03-12T18:41:07.031Z,60.61
2023-03-12T18:42:48.488Z,60.50
2023-03-12T18:44:23.078Z,60.76
2023-03-12T18:46:07.076Z,60.75
2023-03-12T18:47:42.347Z,61.17
2023-03-12T18:49:14.582Z,61.28
2023-03-12T18:50:42.755Z,61.42
2023-03-12T18:52:10.480Z,61.48
2023-03-12T18:53:33.314Z,61.44
2023-03-12T18:55:07.634Z,61.58
2023-03-12T18:56:43.256Z,61.35
2023-03-12T18:58:04.312Z,61.41
2023-03-12T18:59:27.710Z,61.52
2023-03-12T19:00:50.111Z,61.36
2023-03-12T19:02:13.318Z,61.24
2023-03-12T19:03:35.644Z,61.61
2023-03-12T19:05:05.631Z,61.63
2023-03-12T19:06:48.086Z,61.47
2023-03-12T19:08:24.498Z,61.46
2023-03-12T19:10:00.283Z,61.51
2023-03-12T19:11:34.919Z,61.34
2023-03-12T19:13:06.322Z,61.93
2023-03-12T19:14:38.921Z,61.98
2023-03-12T19:16:11.171Z,61.93
2023-03-12T19:17:33.522Z,62.07
2023-03-12T19:18:56.747Z,61.92
2023-03-12T19:20:17.449Z,62.03
2023-03-12T19:21:42.769Z,61.97
2023-03-12T19:23:06.066Z,62.14
2023-03-12T19:24:31.282Z,61.96
2023-03-12T19:25:56.461Z,62.26
2023-03-12T19:27:29.599Z,62.23
2023-03-12T19:29:00.052Z,62.16
2023-03-12T19:30:32.980Z,62.20
2023-03-12T19:32:17.351Z,62.44
2023-03-12T19:33:40.108Z,62.19
2023-03-12T19:35:00.906Z,62.74
2023-03-12T19:36:32.776Z,62.61
2023-03-12T19:38:04.551Z,62.84
2023-03-12T19:39:36.549Z,62.86
2023-03-12T19:40:56.531Z,62.70
2023-03-12T19:42:19.207Z,62.91
2023-03-12T19:43:51.785Z,62.93
2023-03-12T19:45:24.187Z,63.06
2023-03-12T19:47:07.631Z,62.79
2023-03-12T19:48:28.245Z,63.02
2023-03-12T19:50:11.975Z,62.94
2023-03-12T19:51:41.741Z,63.08
2023-03-12T19:53:16.157Z,63.03
2023-03-12T19:54:39.090Z,63.15
2023-03-12T19:56:11.338Z,63.05
2023-03-12T19:57:43.299Z,63.01
2023-03-12T19:59:17.948Z,62.99
2023-03-12T20:00:40.806Z,63.14
2023-03-12T20:02:09.240Z,63.10
2023-03-12T20:03:43.483Z,63.42
2023-03-12T20:05:24.892Z,63.06
2023-03-12T20:06:50.446Z,63.25
2023-03-12T20:08:13.405Z,63.24
2023-03-12T20:09:35.745Z,63.01
2023-03-12T20:10:58.433Z,63.38
2023-03-12T20:12:26.687Z,63.12
2023-03-12T20:13:47.197Z,63.37
2023-03-12T20:15:19.075Z,63.35
2023-03-12T20:16:39.207Z,63.27
2023-03-12T20:18:01.631Z,63.45
2023-03-12T20:19:22.235Z,63.39
2023-03-12T20:20:57.269Z,63.37
2023-03-12T20:22:32.252Z,63.48
2023-03-12T20:24:07.088Z,63.41
2023-03-12T20:25:46.354Z,63.37
2023-03-12T20:27:06.850Z,63.61
2023-03-12T20:28:29.701Z,63.61
2023-03-12T20:29:57.774Z,63.25
2023-03-12T20:31:30.295Z,63.47
2023-03-12T20:33:16.887Z,63.24
2023-03-12T20:34:49.153Z,63.37
2023-03-12T20:36:21.288Z,63.46
2023-03-12T20:38:04.785Z,63.12
2023-03-12T20:39:36.640Z,63.21
2023-03-12T20:41:20.433Z,63.36
2023-03-12T20:43:12.292Z,63.21
2023-03-12T20:44:56.253Z,62.98
2023-03-12T20:46:35.611Z,63.04